createdAt,value
2024-01-05T00:02:14.725Z,10.90
2024-01-05T00:04:43.070Z,11.60
2024-01-05T00:07:12.586Z,12.00
2024-01-05T00:09:40.916Z,11.10
2024-01-05T00:12:09.373Z,10.80
2024-01-05T00:14:39.200Z,10.80
2024-01-05T00:17:07.481Z,10.60
2024-01-05T00:19:36.082Z,11.00
2024-01-05T00:24:33.162Z,12.30
2024-01-05T00:27:01.732Z,13.10
2024-01-05T00:29:30.691Z,10.80
2024-01-05T00:34:27.208Z,10.60
2024-01-05T00:36:55.667Z,11.60
2024-01-05T00:39:23.905Z,10.10
2024-01-05T00:41:52.132Z,11.00
2024-01-05T00:44:21.829Z,8.20
2024-01-05T00:46:50.058Z,9.00
2024-01-05T00:49:18.338Z,7.20
2024-01-05T00:51:47.260Z,10.30
2024-01-05T00:54:15.547Z,9.20
2024-01-05T00:56:44.083Z,9.00
2024-01-05T00:59:13.456Z,10.60
2024-01-05T01:01:41.792Z,10.70
2024-01-05T01:04:10.149Z,9.40
2024-01-05T01:06:38.564Z,8.10
2024-01-05T01:09:06.920Z,8.10
2024-01-05T01:11:35.248Z,7.60
2024-01-05T01:14:03.473Z,9.60
2024-01-05T01:16:32.796Z,10.80
2024-01-05T01:19:01.536Z,9.20
2024-01-05T01:21:29.917Z,7.50
2024-01-05T01:23:58.103Z,13.00
2024-01-05T01:26:26.381Z,9.90
2024-01-05T01:28:54.620Z,8.90
2024-01-05T01:31:23.085Z,9.30
2024-01-05T01:33:51.424Z,9.90
2024-01-05T01:36:19.707Z,8.70
2024-01-05T01:38:47.885Z,9.00
2024-01-05T01:41:16.106Z,8.70
2024-01-05T01:43:52.938Z,8.60
2024-01-05T01:46:23.418Z,9.40
2024-01-05T01:48:53.070Z,7.10
2024-01-05T01:51:21.552Z,8.50
2024-01-05T01:53:50.484Z,10.70
2024-01-05T01:56:18.970Z,11.30
2024-01-05T01:58:47.602Z,12.40
2024-01-05T02:01:16.037Z,8.10
2024-01-05T02:03:45.268Z,8.40
2024-01-05T02:06:13.689Z,10.40
2024-01-05T02:08:41.861Z,12.60
2024-01-05T02:11:10.096Z,7.40
2024-01-05T02:13:38.322Z,9.80
2024-01-05T02:16:06.956Z,10.00
2024-01-05T02:18:35.267Z,11.10
2024-01-05T02:21:05.128Z,7.50
2024-01-05T02:23:33.523Z,7.60
2024-01-05T02:26:02.194Z,8.00
2024-01-05T02:28:30.450Z,9.60
2024-01-05T02:30:58.870Z,8.20
2024-01-05T02:33:27.445Z,7.90
2024-01-05T02:35:55.850Z,8.50
2024-01-05T02:38:24.149Z,7.90
2024-01-05T02:40:52.466Z,8.80
2024-01-05T02:43:20.682Z,9.60
2024-01-05T02:45:48.902Z,8.00
2024-01-05T02:48:17.271Z,9.90
2024-01-05T02:50:45.671Z,8.20
2024-01-05T02:53:13.859Z,7.50
2024-01-05T02:55:42.083Z,7.60
2024-01-05T02:58:10.402Z,9.60
2024-01-05T03:00:38.859Z,8.90
2024-01-05T03:03:07.351Z,8.80
2024-01-05T03:05:35.765Z,8.70
2024-01-05T03:08:04.593Z,9.10
2024-01-05T03:10:32.820Z,8.10
2024-01-05T03:13:01.045Z,7.80
2024-01-05T03:15:29.413Z,7.80
2024-01-05T03:17:58.078Z,7.00
2024-01-05T03:20:26.393Z,10.40
2024-01-05T03:22:54.620Z,10.00
2024-01-05T03:25:22.826Z,7.90
2024-01-05T03:27:50.948Z,9.10
2024-01-05T03:30:19.366Z,8.70
2024-01-05T03:32:47.898Z,10.40
2024-01-05T03:35:16.214Z,7.50
2024-01-05T03:37:44.432Z,6.40
2024-01-05T03:40:12.661Z,7.90
2024-01-05T03:42:40.893Z,8.20
2024-01-05T03:45:09.755Z,9.60
2024-01-05T03:50:07.149Z,6.50
2024-01-05T03:52:36.264Z,5.70
2024-01-05T03:55:05.144Z,7.20
2024-01-05T04:00:02.150Z,6.40
2024-01-05T04:02:33.440Z,7.00
2024-01-05T04:05:01.741Z,7.70
2024-01-05T04:07:30.006Z,8.00
2024-01-05T04:09:58.227Z,10.70
2024-01-05T04:12:26.627Z,11.90
2024-01-05T04:14:54.912Z,9.30
2024-01-05T04:17:23.193Z,10.40
2024-01-05T04:19:51.493Z,7.90
2024-01-05T04:22:19.730Z,8.40
2024-01-05T04:24:47.951Z,8.00
2024-01-05T04:27:16.478Z,8.40
2024-01-05T04:29:44.691Z,10.70
2024-01-05T04:32:12.922Z,8.40
2024-01-05T04:34:41.320Z,8.00
2024-01-05T04:37:10.150Z,7.60
2024-01-05T04:39:38.427Z,8.20
2024-01-05T04:42:06.960Z,8.20
2024-01-05T04:44:35.417Z,8.60
2024-01-05T04:47:03.948Z,8.30
2024-01-05T04:49:34.323Z,7.70
2024-01-05T04:52:03.299Z,7.80
2024-01-05T04:54:31.640Z,8.60
2024-01-05T04:57:00.535Z,7.10
2024-01-05T05:01:57.281Z,8.70
2024-01-05T05:04:25.545Z,9.80
2024-01-05T05:06:54.812Z,8.40
2024-01-05T05:09:23.037Z,8.60
2024-01-05T05:11:51.261Z,5.40
2024-01-05T05:14:19.484Z,7.80
2024-01-05T05:16:47.902Z,7.40
2024-01-05T05:19:16.277Z,8.30
2024-01-05T05:21:44.828Z,10.40
2024-01-05T05:24:13.626Z,9.10
2024-01-05T05:26:43.100Z,7.30
2024-01-05T05:29:11.313Z,9.20
2024-01-05T05:31:39.573Z,10.10
2024-01-05T05:34:07.931Z,12.40
2024-01-05T05:36:36.844Z,8.50
2024-01-05T05:41:33.412Z,10.30
2024-01-05T05:44:01.634Z,9.90
2024-01-05T05:46:29.853Z,10.80
2024-01-05T05:48:58.190Z,9.20
2024-01-05T05:51:26.604Z,9.10
2024-01-05T05:53:54.865Z,10.70
2024-01-05T05:56:23.136Z,10.40
2024-01-05T05:58:51.355Z,8.80
2024-01-05T06:01:19.622Z,9.30
2024-01-05T06:03:47.897Z,9.80
2024-01-05T06:06:24.770Z,12.60
2024-01-05T06:08:53.435Z,15.30
2024-01-05T06:11:22.347Z,11.60
2024-01-05T06:13:50.516Z,11.90
2024-01-05T06:16:18.622Z,10.90
2024-01-05T06:18:46.873Z,12.10
2024-01-05T06:21:16.083Z,17.50
2024-01-05T06:23:44.704Z,22.50
2024-01-05T06:26:12.929Z,14.20
2024-01-05T06:28:41.236Z,14.20
2024-01-05T06:31:10.577Z,14.60
2024-01-05T06:33:39.004Z,13.70
2024-01-05T06:36:08.245Z,31.60
2024-01-05T06:38:36.449Z,19.80
2024-01-05T06:41:05.697Z,28.40
2024-01-05T06:43:33.873Z,18.90
2024-01-05T06:46:02.085Z,18.00
2024-01-05T06:48:30.778Z,15.40
2024-01-05T06:50:59.316Z,14.60
2024-01-05T06:53:30.199Z,14.30
2024-01-05T06:55:58.579Z,10.60
2024-01-05T06:58:28.943Z,13.40
2024-01-05T07:00:58.276Z,11.10
2024-01-05T07:03:26.692Z,20.00
2024-01-05T07:05:54.983Z,17.60
2024-01-05T07:08:23.202Z,10.40
2024-01-05T07:10:51.531Z,7.50
2024-01-05T07:13:19.750Z,9.30
2024-01-05T07:15:47.877Z,10.50
2024-01-05T07:18:16.413Z,8.60
2024-01-05T07:20:44.696Z,9.70
2024-01-05T07:23:12.820Z,9.70
2024-01-05T07:25:41.044Z,8.20
2024-01-05T07:28:09.768Z,10.50
2024-01-05T07:33:07.382Z,14.10
2024-01-05T07:35:35.753Z,7.50
2024-01-05T07:38:05.161Z,11.20
2024-01-05T07:40:33.371Z,8.50
2024-01-05T07:43:01.597Z,8.60
2024-01-05T07:45:29.815Z,6.70
2024-01-05T07:47:59.822Z,8.10
2024-01-05T07:50:28.363Z,7.40
2024-01-05T07:52:56.588Z,9.00
2024-01-05T07:55:25.001Z,7.40
2024-01-05T07:57:53.502Z,7.90
2024-01-05T08:00:22.128Z,11.60
2024-01-05T08:02:51.019Z,7.00
2024-01-05T08:05:19.472Z,7.20
2024-01-05T08:07:47.824Z,9.60
2024-01-05T08:10:16.653Z,7.80
2024-01-05T08:12:45.157Z,8.50
2024-01-05T08:15:14.240Z,10.00
2024-01-05T08:17:42.549Z,8.20
2024-01-05T08:20:12.327Z,9.20
2024-01-05T08:22:40.544Z,8.70
2024-01-05T08:25:09.466Z,8.50
2024-01-05T08:27:38.504Z,8.50
2024-01-05T08:30:08.986Z,7.90
2024-01-05T08:32:37.491Z,7.80
2024-01-05T08:35:07.744Z,6.90
2024-01-05T08:37:38.922Z,10.60
2024-01-05T08:40:09.171Z,8.80
2024-01-05T08:42:37.610Z,8.80
2024-01-05T08:45:06.824Z,9.30
2024-01-05T08:47:35.228Z,8.00
2024-01-05T08:50:03.667Z,6.80
2024-01-05T08:52:32.042Z,10.40
2024-01-05T08:55:00.262Z,9.60
2024-01-05T08:57:28.622Z,12.70
2024-01-05T08:59:57.004Z,9.50
2024-01-05T09:02:25.212Z,7.40
2024-01-05T09:04:53.478Z,9.00
2024-01-05T09:07:21.876Z,9.00
2024-01-05T09:09:50.080Z,6.90
2024-01-05T09:12:18.445Z,9.10
2024-01-05T09:14:46.730Z,8.20
2024-01-05T09:17:15.044Z,9.30
2024-01-05T09:19:43.761Z,8.10
2024-01-05T09:22:13.091Z,8.80
2024-01-05T09:24:41.562Z,5.80
2024-01-05T09:27:09.846Z,5.80
2024-01-05T09:29:38.451Z,6.70
2024-01-05T09:32:07.176Z,7.10
2024-01-05T09:34:35.594Z,5.30
2024-01-05T09:37:04.007Z,7.00
2024-01-05T09:39:32.573Z,7.40
2024-01-05T09:42:01.195Z,6.10
2024-01-05T09:44:31.248Z,7.70
2024-01-05T09:46:59.701Z,5.70
2024-01-05T09:49:28.366Z,8.90
2024-01-05T09:51:58.512Z,6.30
2024-01-05T09:54:26.899Z,6.90
2024-01-05T09:56:55.697Z,6.70
2024-01-05T09:59:26.382Z,6.80
2024-01-05T10:01:55.791Z,7.30
2024-01-05T10:04:24.925Z,5.80
2024-01-05T10:07:01.442Z,6.70
2024-01-05T10:09:31.065Z,4.90
2024-01-05T10:11:59.514Z,5.70
2024-01-05T10:14:29.019Z,6.10
2024-01-05T10:17:10.171Z,6.00
2024-01-05T10:19:40.992Z,5.50
2024-01-05T10:22:15.069Z,5.20
2024-01-05T10:24:44.064Z,6.00
2024-01-05T10:27:14.654Z,7.30
2024-01-05T10:29:45.649Z,5.60
2024-01-05T10:32:17.007Z,5.40
2024-01-05T10:34:50.730Z,4.00
2024-01-05T10:37:23.572Z,3.50
2024-01-05T10:39:55.800Z,4.10
2024-01-05T10:42:30.295Z,6.20
2024-01-05T10:44:59.979Z,5.60
2024-01-05T10:47:32.542Z,6.20
2024-01-05T10:50:01.797Z,3.30
2024-01-05T10:52:33.821Z,4.30
2024-01-05T10:55:06.063Z,6.10
2024-01-05T10:57:38.400Z,5.30
2024-01-05T11:00:07.633Z,4.20
2024-01-05T11:02:42.553Z,4.20
2024-01-05T11:05:13.531Z,4.60
2024-01-05T11:07:43.855Z,5.70
2024-01-05T11:10:40.128Z,3.30
2024-01-05T11:13:17.483Z,3.30
2024-01-05T11:16:26.848Z,3.30
2024-01-05T11:19:28.951Z,3.80
2024-01-05T11:22:09.544Z,3.60
2024-01-05T11:24:40.246Z,3.50
2024-01-05T11:27:47.852Z,3.90
2024-01-05T11:30:40.790Z,3.40
2024-01-05T11:33:10.662Z,3.90
2024-01-05T11:35:45.537Z,6.20
2024-01-05T11:38:28.076Z,4.40
2024-01-05T11:40:56.405Z,4.20
2024-01-05T11:43:31.648Z,6.70
2024-01-05T11:46:00.070Z,4.00
2024-01-05T11:48:38.736Z,11.90
2024-01-05T11:51:08.338Z,3.80
2024-01-05T11:53:37.281Z,3.50
2024-01-05T11:56:16.538Z,5.80
2024-01-05T11:58:47.936Z,4.20
2024-01-05T12:01:18.268Z,2.40
2024-01-05T12:03:46.716Z,4.00
2024-01-05T12:08:44.306Z,3.40
2024-01-05T12:11:13.470Z,4.70
2024-01-05T12:13:42.011Z,3.70
2024-01-05T12:18:50.225Z,3.80
2024-01-05T12:21:21.911Z,4.40
2024-01-05T12:23:56.501Z,5.30
2024-01-05T12:26:26.818Z,7.50
2024-01-05T12:28:55.808Z,5.50
2024-01-05T12:31:25.424Z,5.00
2024-01-05T12:33:54.626Z,11.70
2024-01-05T12:36:29.955Z,4.70
2024-01-05T12:39:13.149Z,4.90
2024-01-05T12:41:44.571Z,3.80
2024-01-05T12:44:16.258Z,4.90
2024-01-05T12:46:48.303Z,4.50
2024-01-05T12:49:25.287Z,4.70
2024-01-05T12:51:54.736Z,4.00
2024-01-05T12:54:23.887Z,3.80
2024-01-05T12:56:52.942Z,5.40
2024-01-05T12:59:22.735Z,3.90
2024-01-05T13:02:05.078Z,4.30
2024-01-05T13:04:40.628Z,5.20
2024-01-05T13:07:13.157Z,6.30
2024-01-05T13:09:42.280Z,3.80
2024-01-05T13:12:12.184Z,5.20
2024-01-05T13:14:41.553Z,6.20
2024-01-05T13:17:09.772Z,6.90
2024-01-05T13:19:40.961Z,4.30
2024-01-05T13:22:11.589Z,4.40
2024-01-05T13:24:44.299Z,5.40
2024-01-05T13:27:14.957Z,4.10
2024-01-05T13:32:11.716Z,3.80
2024-01-05T13:34:40.101Z,5.40
2024-01-05T13:37:08.598Z,5.50
2024-01-05T13:39:40.728Z,4.60
2024-01-05T13:42:10.835Z,5.30
2024-01-05T13:44:39.277Z,4.90
2024-01-05T13:49:35.747Z,9.70
2024-01-05T13:52:04.888Z,5.30
2024-01-05T13:54:35.570Z,6.90
2024-01-05T13:57:04.441Z,6.40
2024-01-05T13:59:35.320Z,4.20
2024-01-05T14:02:04.234Z,5.80
2024-01-05T14:04:32.663Z,4.60
2024-01-05T14:09:30.016Z,6.40
2024-01-05T14:14:26.739Z,4.60
2024-01-05T14:16:55.761Z,5.20
2024-01-05T14:19:25.167Z,4.80
2024-01-05T14:21:53.504Z,5.20
2024-01-05T14:24:21.738Z,6.50
2024-01-05T14:26:49.953Z,5.00
2024-01-05T14:29:19.067Z,5.50
2024-01-05T14:31:47.592Z,6.00
2024-01-05T14:34:16.152Z,4.00
2024-01-05T14:36:44.622Z,4.40
2024-01-05T14:39:13.183Z,4.10
2024-01-05T14:41:41.474Z,4.30
2024-01-05T14:44:09.810Z,4.10
2024-01-05T14:46:38.116Z,5.30
2024-01-05T14:49:07.107Z,5.00
2024-01-05T14:51:35.825Z,7.00
2024-01-05T14:54:04.226Z,5.30
2024-01-05T14:56:33.511Z,4.60
2024-01-05T14:59:02.339Z,4.70
2024-01-05T15:01:30.616Z,5.30
2024-01-05T15:03:58.960Z,6.10
2024-01-05T15:06:28.328Z,3.80
2024-01-05T15:08:56.640Z,5.30
2024-01-05T15:11:24.843Z,8.00
2024-01-05T15:13:53.161Z,7.50
2024-01-05T15:16:21.380Z,6.80
2024-01-05T15:18:49.844Z,4.50
2024-01-05T15:21:27.600Z,8.00
2024-01-05T15:23:55.985Z,5.70
2024-01-05T15:26:24.298Z,3.80
2024-01-05T15:28:52.516Z,7.80
2024-01-05T15:31:22.279Z,7.90
2024-01-05T15:33:53.290Z,73.50
2024-01-05T15:36:25.417Z,9.10
2024-01-05T15:38:54.127Z,11.10
2024-01-05T15:41:22.399Z,46.80
2024-01-05T15:43:57.352Z,29.80
2024-01-05T15:46:28.303Z,26.60
2024-01-05T15:48:59.489Z,62.30
2024-01-05T15:51:31.456Z,85.00
2024-01-05T15:54:01.335Z,56.60
2024-01-05T15:56:30.539Z,37.10
2024-01-05T15:58:58.774Z,78.90
2024-01-05T16:01:27.138Z,61.20
2024-01-05T16:03:55.845Z,43.10
2024-01-05T16:06:24.448Z,57.60
2024-01-05T16:08:52.747Z,23.00
2024-01-05T16:11:31.192Z,34.00
2024-01-05T16:14:00.779Z,31.80
2024-01-05T16:16:29.056Z,92.30
2024-01-05T16:18:57.371Z,85.90
2024-01-05T16:21:27.570Z,56.80
2024-01-05T16:23:57.512Z,65.90
2024-01-05T16:26:26.747Z,71.10
2024-01-05T16:28:55.471Z,86.90
2024-01-05T16:33:53.081Z,58.00
2024-01-05T16:36:25.754Z,34.20
2024-01-05T16:38:54.055Z,27.70
2024-01-05T16:41:25.663Z,59.50
2024-01-05T16:43:56.691Z,104.50
2024-01-05T16:46:25.661Z,116.00
2024-01-05T16:48:55.107Z,82.00
2024-01-05T16:51:24.221Z,71.50
2024-01-05T16:53:52.709Z,61.20
2024-01-05T16:56:26.589Z,65.20
2024-01-05T16:58:57.332Z,93.10
2024-01-05T17:01:26.919Z,81.80
2024-01-05T17:03:56.879Z,88.40
2024-01-05T17:06:25.610Z,76.80
2024-01-05T17:08:54.571Z,82.70
2024-01-05T17:11:27.063Z,82.90
2024-01-05T17:13:57.900Z,78.60
2024-01-05T17:16:28.913Z,54.80
2024-01-05T17:19:00.783Z,49.20
2024-01-05T17:21:29.955Z,100.40
2024-01-05T17:23:58.256Z,69.80
2024-01-05T17:26:27.278Z,96.90
2024-01-05T17:28:55.811Z,119.80
2024-01-05T17:31:24.175Z,124.80
2024-01-05T17:33:52.656Z,125.20
2024-01-05T17:36:28.107Z,156.00
2024-01-05T17:38:57.815Z,86.50
2024-01-05T17:41:26.303Z,123.80
2024-01-05T17:43:54.569Z,145.60
2024-01-05T17:46:22.879Z,155.00
2024-01-05T17:48:51.350Z,145.70
2024-01-05T17:51:19.783Z,113.70
2024-01-05T17:53:49.141Z,145.70
2024-01-05T17:56:27.002Z,162.00
2024-01-05T17:58:55.323Z,163.20
2024-01-05T18:01:24.233Z,198.50
2024-01-05T18:03:52.662Z,185.00
2024-01-05T18:06:21.083Z,187.90
2024-01-05T18:08:49.358Z,364.30
2024-01-05T18:11:27.930Z,359.50
2024-01-05T18:13:56.591Z,475.90
2024-01-05T18:16:30.259Z,324.50
2024-01-05T18:18:58.830Z,240.50
2024-01-05T18:21:29.048Z,242.70
2024-01-05T18:24:01.207Z,255.00
2024-01-05T18:26:29.922Z,261.80
2024-01-05T18:31:42.556Z,219.70
2024-01-05T18:34:11.102Z,233.00
2024-01-05T18:36:44.742Z,218.90
2024-01-05T18:39:13.017Z,245.40
2024-01-05T18:41:41.756Z,212.70
2024-01-05T18:46:43.672Z,298.60
2024-01-05T18:51:41.605Z,173.00
2024-01-05T18:54:09.982Z,171.40
2024-01-05T18:56:38.277Z,173.50
2024-01-05T18:59:06.592Z,200.30
2024-01-05T19:01:34.980Z,215.70
2024-01-05T19:04:03.846Z,172.00
2024-01-05T19:06:32.287Z,161.80
2024-01-05T19:09:01.092Z,171.60
2024-01-05T19:13:57.522Z,190.00
2024-01-05T19:16:25.852Z,197.70
2024-01-05T19:18:54.284Z,209.40
2024-01-05T19:21:22.623Z,258.90
2024-01-05T19:23:50.909Z,333.40
2024-01-05T19:26:22.849Z,334.10
2024-01-05T19:28:51.064Z,316.30
2024-01-05T19:31:19.617Z,276.10
2024-01-05T19:33:47.992Z,274.00
2024-01-05T19:36:17.701Z,271.90
2024-01-05T19:38:45.947Z,248.50
2024-01-05T19:41:14.169Z,235.60
2024-01-05T19:43:42.386Z,184.30
2024-01-05T19:46:10.619Z,183.50
2024-01-05T19:48:39.066Z,169.60
2024-01-05T19:51:13.074Z,164.40
2024-01-05T19:53:44.605Z,161.30
2024-01-05T19:56:13.817Z,145.10
2024-01-05T19:58:43.190Z,159.60
2024-01-05T20:01:11.522Z,131.20
2024-01-05T20:03:40.171Z,132.40
2024-01-05T20:06:08.534Z,105.80
2024-01-05T20:08:36.834Z,117.80
2024-01-05T20:11:09.312Z,108.30
2024-01-05T20:13:37.986Z,84.20
2024-01-05T20:16:07.579Z,73.30
2024-01-05T20:18:35.935Z,63.50
2024-01-05T20:21:04.404Z,59.70
2024-01-05T20:23:32.975Z,65.70
2024-01-05T20:26:01.944Z,73.50
2024-01-05T20:28:31.019Z,76.50
2024-01-05T20:30:59.715Z,592.90
2024-01-05T20:33:29.811Z,994.60
2024-01-05T20:35:58.101Z,489.20
2024-01-05T20:38:26.351Z,303.70
2024-01-05T20:40:55.076Z,232.80
2024-01-05T20:43:23.765Z,224.40
2024-01-05T20:45:52.112Z,216.80
2024-01-05T20:48:20.419Z,238.70
2024-01-05T20:50:50.522Z,257.60
2024-01-05T20:53:19.147Z,264.40
2024-01-05T20:55:50.309Z,275.10
2024-01-05T20:58:18.910Z,258.70
2024-01-05T21:00:49.408Z,269.30
2024-01-05T21:03:19.132Z,240.60
2024-01-05T21:05:49.099Z,242.70
2024-01-05T21:08:17.300Z,247.90
2024-01-05T21:10:45.631Z,250.90
2024-01-05T21:13:13.858Z,190.60
2024-01-05T21:15:42.410Z,149.10
2024-01-05T21:18:11.003Z,168.00
2024-01-05T21:20:40.813Z,169.90
2024-01-05T21:23:09.031Z,122.20
2024-01-05T21:25:37.672Z,137.80
2024-01-05T21:28:06.780Z,149.80
2024-01-05T21:30:35.108Z,162.60
2024-01-05T21:33:04.942Z,129.50
2024-01-05T21:35:33.248Z,116.90
2024-01-05T21:38:02.372Z,95.00
2024-01-05T21:40:31.643Z,108.40
2024-01-05T21:43:00.214Z,100.20
2024-01-05T21:45:28.645Z,110.30
2024-01-05T21:47:57.799Z,104.40
2024-01-05T21:50:26.390Z,84.00
2024-01-05T21:52:54.810Z,86.10
2024-01-05T21:55:23.124Z,81.80
2024-01-05T21:57:51.548Z,75.00
2024-01-05T22:00:20.086Z,90.50
2024-01-05T22:02:49.007Z,80.80
2024-01-05T22:07:45.325Z,86.20
2024-01-05T22:10:13.861Z,96.80
2024-01-05T22:12:42.108Z,92.00
2024-01-05T22:15:10.654Z,91.20
2024-01-05T22:17:39.004Z,87.70
2024-01-05T22:20:08.802Z,73.30
2024-01-05T22:22:37.084Z,71.30
2024-01-05T22:25:06.719Z,58.30
2024-01-05T22:27:36.032Z,57.00
2024-01-05T22:30:05.319Z,40.40
2024-01-05T22:32:33.603Z,38.10
2024-01-05T22:35:02.122Z,39.10
2024-01-05T22:37:30.492Z,36.50
2024-01-05T22:39:58.715Z,40.60
2024-01-05T22:42:27.054Z,86.20
2024-01-05T22:44:55.217Z,82.70
2024-01-05T22:47:23.621Z,81.50
2024-01-05T22:49:52.162Z,89.50
2024-01-05T22:52:20.609Z,93.90
2024-01-05T22:54:48.955Z,110.50
2024-01-05T22:57:18.965Z,108.70
2024-01-05T22:59:47.301Z,120.00
2024-01-05T23:02:15.709Z,114.80
2024-01-05T23:04:43.946Z,112.90
2024-01-05T23:07:12.202Z,102.10
2024-01-05T23:09:40.750Z,76.80
2024-01-05T23:12:09.438Z,85.20
2024-01-05T23:14:37.610Z,83.40
2024-01-05T23:17:05.827Z,97.70
2024-01-05T23:19:34.148Z,91.40
2024-01-05T23:22:02.475Z,81.80
2024-01-05T23:24:30.729Z,64.30
2024-01-05T23:26:59.008Z,71.50
2024-01-05T23:29:27.442Z,76.10
2024-01-05T23:31:56.197Z,105.00
2024-01-05T23:34:24.530Z,92.70
2024-01-05T23:36:53.326Z,88.10
2024-01-05T23:39:21.768Z,85.70
2024-01-05T23:41:50.035Z,81.10
2024-01-05T23:44:18.361Z,72.90
2024-01-05T23:46:46.893Z,74.80
2024-01-05T23:49:15.193Z,75.30
2024-01-05T23:51:43.555Z,74.90
2024-01-05T23:54:11.860Z,79.80
2024-01-05T23:56:40.165Z,72.90
2024-01-05T23:59:08.584Z,109.00
